NCAR-RAP Real-Time Weather Data

Output produced by METARs form (24 April 2018  16:22 UTC)
found at http://weather.rap.ucar.edu/surface/
 
RJTF 240800Z 19009KT 9999 -RA FEW030 BKN060 BKN100 19/13 Q1009
RJTF 240700Z 18007KT 9999 -RA FEW030 BKN060 BKN100 20/13 Q1010
RJTF 240600Z 18008KT 150V220 9999 -RA FEW030 BKN050 BKN100 21/13 Q1010
RJTF 240500Z 18010KT 9999 -RA FEW030 SCT050 BKN110 21/14 Q1011
RJTF 240400Z 20008KT 140V220 9999 FEW030 SCT070 BKN120 21/13 Q1012
RJTF 240300Z 19007KT 160V240 9999 FEW020 SCT060 BKN120 20/13 Q1013
RJTF 240200Z VRB03KT 9999 FEW015 SCT020 BKN030 20/15 Q1014
RJTF 240100Z VRB01KT 6000 FEW010 SCT015 BKN060 18/14 Q1015
RJTF 240000Z 01003KT 330V040 4000 -RA BR FEW009 BKN011 BKN020 16/13 Q1016
RJTF 232330Z 34003KT 280V030 4000 BR FEW008 BKN009 16/13 Q1017
RJTF 232310Z 36003KT 330V030 4000 BR FEW008 BKN009 16/13 Q1017 RMK 1ST008 7ST009 A3004
RJTF 230800Z 13009KT 7000 FEW015 BKN020 BKN030 17/11 Q1019
RJTF 230700Z 14008KT 8000 FEW020 BKN025 BKN035 18/11 Q1019
RJTF 230600Z 14008KT 8000 FEW020 SCT030 BKN040 18/11 Q1020
RJTF 230500Z 14007KT 8000 FEW020 SCT030 BKN040 18/11 Q1020
RJTF 230400Z 12006KT 090V160 7000 FEW020 SCT030 BKN040 18/11 Q1020
RJTF 230300Z 10006KT 030V130 7000 FEW015 SCT020 BKN030 18/11 Q1021
RJTF 230200Z 08005KT 050V120 8000 FEW015 SCT020 BKN030 18/11 Q1021
RJTF 230100Z 06006KT 360V140 8000 FEW015 SCT020 BKN030 18/12 Q1021
RJTF 230000Z 05005KT 360V100 8000 FEW015 BKN020 BKN030 17/12 Q1022
RJTF 222330Z 06005KT 8000 FEW015 BKN020 17/12 Q1021
RJTF 220800Z 19006KT 160V250 CAVOK 26/11 Q1015
RJTF 220700Z 17010KT CAVOK 27/10 Q1015
RJTF 220600Z 15011KT 110V180 CAVOK 28/08 Q1015
RJTF 220500Z 19009KT 150V220 CAVOK 29/07 Q1015